This is the latest recevied weather packets stored in our database for station/object KQ4PPF. If no packets are shown the sender has not sent any weather packets the latest 10 day(s).
| Time | Temp. | Humidity | Pressure | Rain* | Wind** | Luminosity | Snow |
|---|---|---|---|---|---|---|---|
| 1777984559 | 15.56° C | 74% | 1014.6 hPa | 0 mm | - | 69 W/m² | - |
| 1777984256 | 15.56° C | 74% | 1014.4 hPa | 0 mm | - | 66 W/m² | - |
| 1777983953 | 15.56° C | 74% | 1014.2 hPa | 0 mm | - | 70 W/m² | - |
| 1777983650 | 15.56° C | 74% | 1014.2 hPa | 0 mm | - | 72 W/m² | - |
| 1777983346 | 16.11° C | 75% | 1014.2 hPa | 0 mm | - | 79 W/m² | - |
| 1777983043 | 15.56° C | 77% | 1014.3 hPa | 0 mm | - | 81 W/m² | - |
| 1777982740 | 15° C | 79% | 1014.2 hPa | 0 mm | - | 85 W/m² | - |
| 1777982435 | 15° C | 80% | 1014.2 hPa | 0 mm | - | 67 W/m² | - |
| 1777982130 | 15° C | 78% | 1013.9 hPa | 0 mm | - | 47 W/m² | - |
| 1777981823 | 14.44° C | 78% | 1014 hPa | 0 mm | - | 42 W/m² | - |
| 1777981520 | 12.78° C | 87% | 1013.9 hPa | 0 mm | - | 46 W/m² | - |
| 1777981215 | 12.22° C | 87% | 1013.7 hPa | 0 mm | - | 39 W/m² | - |
| 1777980912 | 12.22° C | 87% | 1013.7 hPa | 0 mm | - | 32 W/m² | - |
| 1777980608 | 11.67° C | 87% | 1013.4 hPa | 0 mm | - | 23 W/m² | - |
| 1777980304 | 11.67° C | 87% | 1013.4 hPa | 0 mm | - | 22 W/m² | - |
| 1777980002 | 11.67° C | 87% | 1013.4 hPa | 0 mm | - | 20 W/m² | - |
| 1777979696 | 11.11° C | 87% | 1013.3 hPa | 0 mm | - | 19 W/m² | - |
| 1777979392 | 11.11° C | 87% | 1013.3 hPa | 0 mm | - | 14 W/m² | - |
| 1777979089 | 11.11° C | 87% | 1013.3 hPa | 0 mm | - | 10 W/m² | - |
| 1777978786 | 11.11° C | 86% | 1013.4 hPa | 0 mm | - | 6 W/m² | - |
| 1777978482 | 11.11° C | 86% | 1013.3 hPa | 0 mm | - | 3 W/m² | - |
| 1777978178 | 11.67° C | 85% | 1013.3 hPa | 0 mm | - | 1 W/m² | - |
| 1777977876 | 11.67° C | 85% | 1013.1 hPa | 0 mm | - | 0 W/m² | - |
| 1777977572 | 11.67° C | 85% | 1013.2 hPa | 0 mm | - | 0 W/m² | - |
| 1777977270 | 11.67° C | 84% | 1013 hPa | 0 mm | - | 0 W/m² | - |
* Rain latest hour (hover to see other rain measurements)
** Current wind speed in m/s (hover to see current wind gust speed)